Time;durP1;ratioP1;P1;durP2;ratioP2;P2;SDS_P1;SDS_P2;PMS_P1;PMS_P2;Temp;Humidity;BMP_temperature;BMP_pressure;BME280_temperature;BME280_humidity;BME280_pressure;Samples;Min_cycle;Max_cycle;Signal;HPM_P1;HPM_P2
2021/11/11 00:00:09;;;;;;;15.18;8.50;;;7.40;90.20;;;;;;2115250;28;20459;-91
2021/11/11 00:01:10;;;;;;;17.95;9.85;;;7.40;90.30;;;;;;2099497;28;20032;-90
2021/11/11 00:02:11;;;;;;;16.95;9.38;;;7.40;90.30;;;;;;2087924;28;20585;-90
2021/11/11 00:03:11;;;;;;;16.60;9.25;;;7.40;90.30;;;;;;2080915;28;20033;-90
2021/11/11 00:04:16;;;;;;;14.35;8.80;;;7.40;90.30;;;;;;2100021;28;20094;-90
2021/11/11 00:05:17;;;;;;;15.32;9.23;;;7.40;90.30;;;;;;2091637;28;20028;-90
2021/11/11 00:06:18;;;;;;;15.02;9.20;;;7.30;90.30;;;;;;2092346;28;20032;-89
2021/11/11 00:07:18;;;;;;;15.02;8.95;;;7.30;90.30;;;;;;2109917;28;20035;-90
2021/11/11 00:08:19;;;;;;;16.15;9.07;;;7.30;90.30;;;;;;2105514;28;20040;-89
2021/11/11 00:09:20;;;;;;;14.80;9.63;;;7.30;90.30;;;;;;2088821;28;20089;-87
2021/11/11 00:10:22;;;;;;;15.15;9.52;;;7.30;90.30;;;;;;2109861;28;20048;-89
2021/11/11 00:11:24;;;;;;;15.07;9.27;;;7.30;90.30;;;;;;2114591;28;20020;-90
2021/11/11 00:12:31;;;;;;;14.68;8.98;;;7.30;90.30;;;;;;2107791;28;20500;-90
2021/11/11 00:13:32;;;;;;;14.80;9.15;;;7.30;90.30;;;;;;2109852;28;20467;-91
2021/11/11 00:14:33;;;;;;;14.48;9.38;;;7.30;90.30;;;;;;2115911;28;20079;-91
2021/11/11 00:15:33;;;;;;;16.15;9.30;;;7.30;90.40;;;;;;2108148;28;20416;-90
2021/11/11 00:16:34;;;;;;;15.25;9.00;;;7.30;90.40;;;;;;2098676;28;20017;-89
2021/11/11 00:17:35;;;;;;;18.27;10.40;;;7.20;90.30;;;;;;2098639;28;20032;-89
2021/11/11 00:18:36;;;;;;;16.50;9.60;;;7.30;90.40;;;;;;2099218;28;20033;-89
2021/11/11 00:19:36;;;;;;;14.15;8.95;;;7.30;90.40;;;;;;2090804;28;20053;-90
2021/11/11 00:20:37;;;;;;;15.27;9.18;;;7.30;90.40;;;;;;2091019;28;20025;-90
2021/11/11 00:21:38;;;;;;;16.92;9.70;;;7.20;90.40;;;;;;2087825;28;20067;-89
2021/11/11 00:22:40;;;;;;;13.60;9.00;;;7.20;90.40;;;;;;2087436;28;20387;-90
2021/11/11 00:23:42;;;;;;;16.77;9.32;;;7.20;90.40;;;;;;2111142;28;20525;-90
2021/11/11 00:24:43;;;;;;;14.70;9.20;;;7.20;90.40;;;;;;2115981;28;20027;-89
2021/11/11 00:25:44;;;;;;;14.38;9.43;;;7.20;90.40;;;;;;2107954;28;20028;-91
2021/11/11 00:26:45;;;;;;;14.10;9.63;;;7.20;90.40;;;;;;2099362;28;20115;-90
2021/11/11 00:27:47;;;;;;;15.48;9.32;;;7.20;90.40;;;;;;2112514;28;20035;-90
2021/11/11 00:28:49;;;;;;;15.00;8.82;;;7.20;90.40;;;;;;2116053;28;20016;-90
2021/11/11 00:29:50;;;;;;;13.23;8.77;;;7.20;90.60;;;;;;2107957;28;20028;-90
2021/11/11 00:30:50;;;;;;;14.57;9.10;;;7.20;90.40;;;;;;2116197;28;20054;-91
2021/11/11 00:31:51;;;;;;;15.63;9.48;;;7.20;90.40;;;;;;2107184;28;20024;-90
2021/11/11 00:32:52;;;;;;;15.30;9.68;;;7.10;90.40;;;;;;2105333;28;20032;-90
2021/11/11 00:33:53;;;;;;;15.38;8.93;;;7.20;90.40;;;;;;2116682;28;20367;-90
2021/11/11 00:34:54;;;;;;;16.00;10.38;;;7.10;90.40;;;;;;2116581;28;20049;-90
2021/11/11 00:35:55;;;;;;;15.75;9.05;;;7.10;90.40;;;;;;2114180;28;20028;-90
2021/11/11 00:36:55;;;;;;;14.52;9.45;;;7.20;90.40;;;;;;2112966;28;20070;-90
2021/11/11 00:37:57;;;;;;;14.13;9.40;;;7.10;90.40;;;;;;2108356;28;20051;-91
2021/11/11 00:38:58;;;;;;;15.23;9.45;;;7.10;90.40;;;;;;2107342;28;20501;-90
2021/11/11 00:39:59;;;;;;;14.82;9.48;;;7.10;90.40;;;;;;2098890;28;20020;-90
2021/11/11 00:40:59;;;;;;;16.05;10.15;;;7.10;90.40;;;;;;2100870;28;20032;-91
2021/11/11 00:42:00;;;;;;;14.73;8.93;;;7.00;90.40;;;;;;2101716;28;20032;-90
2021/11/11 00:43:01;;;;;;;16.17;9.10;;;7.00;90.40;;;;;;2106722;28;20040;-89
2021/11/11 00:44:02;;;;;;;16.17;9.95;;;7.00;90.40;;;;;;2115888;28;20023;-89
2021/11/11 00:45:04;;;;;;;15.07;9.57;;;7.00;90.40;;;;;;2107517;28;20127;-90
2021/11/11 00:46:05;;;;;;;15.75;9.90;;;6.90;90.40;;;;;;2116090;28;20058;-90
2021/11/11 00:47:05;;;;;;;16.92;9.48;;;6.90;90.40;;;;;;2106534;28;20406;-90
2021/11/11 00:48:07;;;;;;;17.25;9.48;;;6.90;90.40;;;;;;2098343;28;20032;-90
2021/11/11 00:49:08;;;;;;;17.45;9.68;;;6.90;90.40;;;;;;2115678;28;20023;-91
2021/11/11 00:50:10;;;;;;;14.60;9.15;;;6.90;90.40;;;;;;2113011;28;20084;-90
2021/11/11 00:51:11;;;;;;;16.20;10.13;;;6.90;90.40;;;;;;2115742;28;20108;-90
2021/11/11 00:52:12;;;;;;;16.52;10.18;;;6.90;90.50;;;;;;2107498;28;20036;-90
2021/11/11 00:53:12;;;;;;;15.93;10.48;;;6.80;90.40;;;;;;2098230;28;20025;-90
2021/11/11 00:54:13;;;;;;;16.17;9.60;;;6.90;90.50;;;;;;2090944;28;20032;-90
2021/11/11 00:55:14;;;;;;;15.18;9.93;;;6.80;90.50;;;;;;2090261;28;20025;-89
2021/11/11 00:56:14;;;;;;;18.67;10.30;;;6.80;90.40;;;;;;2090661;28;20090;-89
2021/11/11 00:57:15;;;;;;;16.23;10.10;;;6.80;90.50;;;;;;2083926;28;20026;-89
2021/11/11 00:58:16;;;;;;;15.90;9.75;;;6.80;90.40;;;;;;2099053;28;20114;-89
2021/11/11 00:59:16;;;;;;;15.82;9.90;;;6.80;90.50;;;;;;2107364;28;20036;-89
2021/11/11 01:00:19;;;;;;;16.13;9.93;;;6.80;90.40;;;;;;2101763;28;20024;-89
2021/11/11 01:01:19;;;;;;;15.45;10.00;;;6.80;90.40;;;;;;2094962;28;20032;-89
2021/11/11 01:02:20;;;;;;;15.23;9.73;;;6.80;90.40;;;;;;2089595;28;20032;-89
2021/11/11 01:03:25;;;;;;;16.08;10.35;;;6.80;90.40;;;;;;2101364;28;20125;-90
2021/11/11 01:04:26;;;;;;;16.20;9.35;;;6.90;90.40;;;;;;2123350;28;20448;-90
2021/11/11 01:05:26;;;;;;;14.65;10.05;;;6.90;90.40;;;;;;2117398;28;20024;-84
2021/11/11 01:06:29;;;;;;;16.75;9.68;;;6.90;90.40;;;;;;2117785;28;20046;-88
2021/11/11 01:07:29;;;;;;;14.20;9.18;;;6.90;90.40;;;;;;2120048;28;20015;-86
2021/11/11 01:08:30;;;;;;;14.57;9.27;;;6.90;90.40;;;;;;2117911;28;20001;-84
2021/11/11 01:09:31;;;;;;;16.58;9.80;;;6.90;90.40;;;;;;2117810;28;20024;-84
2021/11/11 01:10:33;;;;;;;15.05;9.25;;;6.90;90.40;;;;;;2113220;28;20015;-88
2021/11/11 01:11:33;;;;;;;14.27;9.02;;;6.90;90.40;;;;;;2117359;28;20032;-89
2021/11/11 01:12:34;;;;;;;16.75;9.52;;;7.00;90.40;;;;;;2112733;28;20055;-90
2021/11/11 01:13:37;;;;;;;13.45;9.00;;;7.00;90.70;;;;;;2114698;28;20468;-89
2021/11/11 01:14:37;;;;;;;15.85;9.93;;;7.00;90.40;;;;;;2113231;28;20047;-88
2021/11/11 01:15:38;;;;;;;15.68;9.68;;;7.00;90.40;;;;;;2115999;28;20371;-89
2021/11/11 01:16:39;;;;;;;14.73;9.73;;;7.00;90.40;;;;;;2106351;28;20031;-90
2021/11/11 01:17:40;;;;;;;14.20;8.77;;;7.00;90.40;;;;;;2090509;28;20108;-89
2021/11/11 01:18:41;;;;;;;14.57;8.70;;;7.00;90.40;;;;;;2104161;28;20096;-89
2021/11/11 01:19:42;;;;;;;16.77;9.18;;;7.00;90.60;;;;;;2098732;28;20079;-90
2021/11/11 01:20:43;;;;;;;15.82;8.65;;;7.10;90.40;;;;;;2107385;28;20024;-89
2021/11/11 01:21:44;;;;;;;16.60;10.50;;;7.10;90.30;;;;;;2111551;28;20062;-90
2021/11/11 01:22:46;;;;;;;14.45;9.23;;;7.10;90.30;;;;;;2114033;28;20035;-90
2021/11/11 01:23:47;;;;;;;14.82;9.02;;;7.10;90.30;;;;;;2119688;27;20160;-90
2021/11/11 01:24:48;;;;;;;14.55;9.18;;;7.10;90.30;;;;;;2107007;28;20460;-90
2021/11/11 01:25:49;;;;;;;16.60;9.57;;;7.10;90.30;;;;;;2106822;28;20121;-90
2021/11/11 01:26:50;;;;;;;15.10;9.25;;;7.10;90.30;;;;;;2109434;28;20054;-90
2021/11/11 01:27:51;;;;;;;15.43;9.57;;;7.10;90.30;;;;;;2107660;28;20040;-89
2021/11/11 01:28:51;;;;;;;14.73;9.18;;;7.20;90.30;;;;;;2112765;28;20057;-89
2021/11/11 01:29:52;;;;;;;14.55;9.63;;;7.20;90.30;;;;;;2116165;28;20084;-90
2021/11/11 01:30:53;;;;;;;13.93;9.18;;;7.20;90.30;;;;;;2113964;28;20098;-90
2021/11/11 01:31:53;;;;;;;15.45;9.30;;;7.20;90.30;;;;;;2109042;28;20047;-89
2021/11/11 01:32:54;;;;;;;14.70;9.05;;;7.20;90.30;;;;;;2100999;28;20032;-91
2021/11/11 01:33:55;;;;;;;14.45;8.85;;;7.20;90.30;;;;;;2099175;28;20043;-90
2021/11/11 01:34:56;;;;;;;14.90;9.27;;;7.20;90.30;;;;;;2113624;28;20024;-90
2021/11/11 01:35:57;;;;;;;14.98;9.18;;;7.20;90.30;;;;;;2106944;28;20482;-89
2021/11/11 01:36:58;;;;;;;14.88;8.90;;;7.20;90.20;;;;;;2098578;28;20072;-90
2021/11/11 01:37:58;;;;;;;14.38;8.95;;;7.30;90.20;;;;;;2092101;28;20064;-90
2021/11/11 01:38:59;;;;;;;15.95;8.85;;;7.30;90.20;;;;;;2098355;28;20044;-90
2021/11/11 01:40:00;;;;;;;13.90;8.85;;;7.30;90.20;;;;;;2111515;28;20479;-90
2021/11/11 01:41:01;;;;;;;15.98;9.55;;;7.30;90.20;;;;;;2107228;28;20098;-89
2021/11/11 01:42:02;;;;;;;16.40;9.23;;;7.30;90.20;;;;;;2106437;28;20623;-90
2021/11/11 01:43:05;;;;;;;15.20;8.80;;;7.30;90.20;;;;;;2089800;28;20021;-90
2021/11/11 01:44:06;;;;;;;14.63;8.50;;;7.30;90.20;;;;;;2106886;28;20099;-89
2021/11/11 01:45:07;;;;;;;14.05;9.15;;;7.30;90.40;;;;;;2114134;28;20389;-89
2021/11/11 01:46:08;;;;;;;13.88;8.95;;;7.30;90.20;;;;;;2113729;28;20035;-90
2021/11/11 01:47:08;;;;;;;14.60;8.73;;;7.30;90.20;;;;;;2103246;28;20510;-89
2021/11/11 01:48:11;;;;;;;14.23;9.00;;;7.30;90.20;;;;;;2108097;28;20039;-88
2021/11/11 01:49:15;;;;;;;14.75;9.23;;;7.30;90.20;;;;;;2106974;28;20474;-90
2021/11/11 01:50:16;;;;;;;14.30;9.40;;;7.30;90.20;;;;;;2098536;28;20028;-90
2021/11/11 01:51:17;;;;;;;15.35;9.75;;;7.30;90.30;;;;;;2082568;28;20534;-91
2021/11/11 01:52:18;;;;;;;15.38;9.60;;;7.30;90.30;;;;;;2096485;28;20028;-90
2021/11/11 01:53:20;;;;;;;14.02;9.05;;;7.30;90.30;;;;;;2098838;28;20029;-90
2021/11/11 01:54:20;;;;;;;14.65;8.63;;;7.40;90.30;;;;;;2090535;28;20079;-90
2021/11/11 01:55:22;;;;;;;15.00;9.35;;;7.40;90.30;;;;;;2098572;28;20422;-90
2021/11/11 01:56:23;;;;;;;15.32;9.30;;;7.30;90.30;;;;;;2090334;28;20475;-90
2021/11/11 01:57:25;;;;;;;15.07;9.48;;;7.40;90.30;;;;;;2106765;28;20016;-91
2021/11/11 01:58:26;;;;;;;16.65;10.35;;;7.40;90.30;;;;;;2109155;28;20496;-89
2021/11/11 01:59:27;;;;;;;15.85;9.05;;;7.40;90.30;;;;;;2106747;28;20036;-89
2021/11/11 02:00:31;;;;;;;15.68;9.20;;;7.40;90.30;;;;;;2097492;28;20082;-90
2021/11/11 02:01:32;;;;;;;15.10;9.48;;;7.40;90.30;;;;;;2098665;28;20024;-90
2021/11/11 02:02:33;;;;;;;14.50;9.30;;;7.40;90.30;;;;;;2089597;28;20028;-90
2021/11/11 02:03:34;;;;;;;15.13;9.23;;;7.40;90.30;;;;;;2081864;28;20025;-90
2021/11/11 02:04:35;;;;;;;14.07;9.13;;;7.40;90.20;;;;;;2106621;28;20547;-90
2021/11/11 02:05:36;;;;;;;16.08;9.60;;;7.40;90.20;;;;;;2106841;28;20036;-90
2021/11/11 02:06:37;;;;;;;14.80;9.13;;;7.40;90.20;;;;;;2098550;28;20017;-89
2021/11/11 02:07:38;;;;;;;15.90;9.93;;;7.40;90.20;;;;;;2095795;28;20033;-89
2021/11/11 02:08:39;;;;;;;15.65;9.57;;;7.40;90.20;;;;;;2099452;28;20102;-89
2021/11/11 02:09:40;;;;;;;14.50;9.35;;;7.50;90.20;;;;;;2108419;28;20129;-89
2021/11/11 02:10:42;;;;;;;17.25;10.35;;;7.50;90.20;;;;;;2098254;28;20044;-90
2021/11/11 02:11:43;;;;;;;15.38;9.40;;;7.50;90.20;;;;;;2090325;28;20120;-90
2021/11/11 02:12:45;;;;;;;15.32;9.70;;;7.50;90.20;;;;;;2090036;28;20020;-90
2021/11/11 02:13:46;;;;;;;15.85;9.60;;;7.50;90.20;;;;;;2109828;28;20521;-90
2021/11/11 02:14:47;;;;;;;15.48;9.65;;;7.50;90.20;;;;;;2099072;28;20079;-89
2021/11/11 02:15:48;;;;;;;15.32;9.95;;;7.50;90.20;;;;;;2106897;28;20024;-90
2021/11/11 02:16:49;;;;;;;14.15;9.05;;;7.50;90.20;;;;;;2113217;28;20077;-90
2021/11/11 02:17:51;;;;;;;14.55;9.35;;;7.50;90.20;;;;;;2110802;28;20032;-90
2021/11/11 02:18:52;;;;;;;15.55;10.60;;;7.60;90.20;;;;;;2107313;28;20109;-90
2021/11/11 02:19:59;;;;;;;14.23;9.13;;;7.50;90.20;;;;;;2112443;28;20101;-90
2021/11/11 02:21:00;;;;;;;14.90;9.38;;;7.50;90.20;;;;;;2106897;28;20409;-90
2021/11/11 02:22:04;;;;;;;14.30;9.00;;;7.60;90.20;;;;;;2115188;28;20031;-91
2021/11/11 02:23:10;;;;;;;16.50;9.50;;;7.50;90.20;;;;;;2115130;28;20120;-90
2021/11/11 02:24:11;;;;;;;15.73;9.57;;;7.50;90.20;;;;;;2115107;28;20046;-90
2021/11/11 02:25:14;;;;;;;16.27;9.82;;;7.60;90.20;;;;;;2110727;28;20035;-90
2021/11/11 02:26:15;;;;;;;14.07;9.20;;;7.60;90.20;;;;;;2108499;28;20027;-91
2021/11/11 02:27:15;;;;;;;13.15;8.80;;;7.60;90.20;;;;;;2115028;28;20030;-86
2021/11/11 02:28:19;;;;;;;15.57;9.50;;;7.60;90.20;;;;;;2103755;28;20015;-90
2021/11/11 02:29:19;;;;;;;15.13;9.23;;;7.60;90.20;;;;;;2109859;28;20032;-90
2021/11/11 02:30:23;;;;;;;15.63;10.00;;;7.60;90.10;;;;;;2113125;28;20031;-90
2021/11/11 02:31:24;;;;;;;14.23;9.52;;;7.60;90.10;;;;;;2106920;28;20044;-90
2021/11/11 02:32:30;;;;;;;15.80;10.23;;;7.60;90.10;;;;;;2106703;28;20020;-90
2021/11/11 02:33:31;;;;;;;16.65;9.70;;;7.60;90.10;;;;;;2115064;28;20497;-90
2021/11/11 02:34:32;;;;;;;15.95;10.00;;;7.60;90.10;;;;;;2112671;28;20031;-90
2021/11/11 02:35:32;;;;;;;17.50;9.73;;;7.50;90.10;;;;;;2098105;28;20123;-90
2021/11/11 02:36:33;;;;;;;13.77;9.48;;;7.50;90.10;;;;;;2090203;28;20075;-89
2021/11/11 02:37:36;;;;;;;15.20;10.05;;;7.60;90.20;;;;;;2107940;28;20028;-90
2021/11/11 02:38:37;;;;;;;17.50;9.77;;;7.50;90.20;;;;;;2098399;28;20023;-90
2021/11/11 02:39:38;;;;;;;14.70;10.18;;;7.50;90.50;;;;;;2083062;28;20465;-90
2021/11/11 02:40:39;;;;;;;15.50;9.90;;;7.50;90.20;;;;;;2095959;28;20013;-90
2021/11/11 02:41:45;;;;;;;17.30;10.43;;;7.50;90.20;;;;;;2096826;28;20177;-89
2021/11/11 02:42:48;;;;;;;13.55;9.40;;;7.50;90.20;;;;;;2098326;28;20115;-89
2021/11/11 02:43:49;;;;;;;17.10;10.32;;;7.60;90.20;;;;;;2087567;28;20021;-90
2021/11/11 02:44:49;;;;;;;16.92;10.40;;;7.50;90.20;;;;;;2101380;28;20025;-89
2021/11/11 02:45:51;;;;;;;17.55;10.30;;;7.60;90.20;;;;;;2111279;28;20028;-90
2021/11/11 02:46:53;;;;;;;14.40;9.52;;;7.60;90.20;;;;;;2119138;28;20027;-90
2021/11/11 02:47:54;;;;;;;14.32;9.73;;;7.60;90.20;;;;;;2120453;28;20024;-90
2021/11/11 02:48:55;;;;;;;16.13;10.18;;;7.60;90.10;;;;;;2105895;28;20035;-90
2021/11/11 02:49:56;;;;;;;17.58;9.95;;;7.60;90.10;;;;;;2111625;28;20020;-90
2021/11/11 02:50:57;;;;;;;17.08;10.38;;;7.60;90.10;;;;;;2108181;28;20032;-90
2021/11/11 02:51:58;;;;;;;15.65;10.07;;;7.60;90.10;;;;;;2113615;28;20028;-90
2021/11/11 02:52:59;;;;;;;17.65;11.15;;;7.60;90.10;;;;;;2123732;28;20023;-89
2021/11/11 02:54:00;;;;;;;17.85;10.73;;;7.60;90.10;;;;;;2109061;28;20047;-88
2021/11/11 02:55:02;;;;;;;16.80;10.52;;;7.60;90.10;;;;;;2095175;28;20044;-91
2021/11/11 02:56:03;;;;;;;15.57;9.82;;;7.60;90.10;;;;;;2106881;28;20044;-90
2021/11/11 02:57:19;;;;;;;16.85;10.50;;;7.60;90.10;;;;;;2107436;28;20039;-90
2021/11/11 02:58:23;;;;;;;17.80;10.07;;;7.60;90.10;;;;;;2106637;28;20027;-90
2021/11/11 02:59:23;;;;;;;17.33;10.57;;;7.60;90.10;;;;;;2109446;28;20037;-90
2021/11/11 03:00:38;;;;;;;16.58;10.27;;;7.60;90.10;;;;;;2115457;28;20020;-90
2021/11/11 03:01:39;;;;;;;16.20;10.85;;;7.60;90.10;;;;;;2111962;28;20020;-90
2021/11/11 03:02:42;;;;;;;17.25;10.43;;;7.50;90.20;;;;;;2106844;28;20463;-90
2021/11/11 03:03:43;;;;;;;17.15;10.25;;;7.60;90.10;;;;;;2111984;28;20031;-90
2021/11/11 03:04:44;;;;;;;15.35;10.05;;;7.60;90.10;;;;;;2106920;28;20024;-90
2021/11/11 03:05:45;;;;;;;17.13;10.32;;;7.60;90.40;;;;;;2110413;28;20031;-90
2021/11/11 03:06:45;;;;;;;16.63;10.13;;;7.50;90.10;;;;;;2114819;28;20043;-90
2021/11/11 03:07:46;;;;;;;17.50;10.13;;;7.50;90.10;;;;;;2106186;28;20375;-90
2021/11/11 03:08:47;;;;;;;18.30;10.85;;;7.60;90.10;;;;;;2105702;28;20510;-90
2021/11/11 03:09:49;;;;;;;15.50;9.80;;;7.50;90.10;;;;;;2108789;28;20032;-90
2021/11/11 03:10:50;;;;;;;17.63;10.45;;;7.50;90.40;;;;;;2112288;28;20442;-90
2021/11/11 03:11:53;;;;;;;18.63;10.30;;;7.50;90.10;;;;;;2107755;28;20028;-90
2021/11/11 03:12:55;;;;;;;18.65;10.48;;;7.50;90.10;;;;;;2105995;28;20025;-90
2021/11/11 03:13:56;;;;;;;16.67;10.60;;;7.50;90.20;;;;;;2093490;28;20048;-90
2021/11/11 03:14:57;;;;;;;17.63;10.98;;;7.50;90.20;;;;;;2097891;28;20033;-91
2021/11/11 03:15:58;;;;;;;17.55;10.45;;;7.50;90.20;;;;;;2111254;28;20401;-90
2021/11/11 03:16:59;;;;;;;18.83;11.05;;;7.50;90.20;;;;;;2115063;28;20020;-90
2021/11/11 03:18:00;;;;;;;14.98;10.23;;;7.50;90.20;;;;;;2097163;28;20107;-90
2021/11/11 03:19:01;;;;;;;18.13;11.27;;;7.50;90.20;;;;;;2095929;28;20036;-91
2021/11/11 03:20:03;;;;;;;17.27;10.68;;;7.50;90.20;;;;;;2105581;28;20142;-90
2021/11/11 03:21:04;;;;;;;16.52;10.57;;;7.40;90.20;;;;;;2106402;28;20023;-90
2021/11/11 03:22:12;;;;;;;18.20;10.77;;;7.50;90.20;;;;;;2112613;28;20389;-90
2021/11/11 03:23:13;;;;;;;19.67;11.38;;;7.50;90.20;;;;;;2113554;28;20080;-90
2021/11/11 03:24:13;;;;;;;19.08;11.15;;;7.40;90.20;;;;;;2113756;28;20463;-91
2021/11/11 03:25:19;;;;;;;16.85;10.90;;;7.50;90.20;;;;;;2097759;28;20490;-91
2021/11/11 03:26:22;;;;;;;18.85;10.65;;;7.40;90.20;;;;;;2106781;28;20023;-91
2021/11/11 03:27:22;;;;;;;20.63;11.38;;;7.40;90.20;;;;;;2115450;28;20062;-90
2021/11/11 03:28:23;;;;;;;16.80;11.27;;;7.50;90.30;;;;;;2097842;28;20087;-91
2021/11/11 03:29:24;;;;;;;17.55;10.73;;;7.50;90.30;;;;;;2088651;28;20025;-91
2021/11/11 03:30:26;;;;;;;17.73;10.52;;;7.40;90.30;;;;;;2100457;28;20071;-90
2021/11/11 03:31:26;;;;;;;15.82;10.68;;;7.40;90.30;;;;;;2089844;28;20063;-91
2021/11/11 03:32:27;;;;;;;16.92;10.45;;;7.50;90.30;;;;;;2088803;28;20115;-90
2021/11/11 03:33:28;;;;;;;18.38;11.43;;;7.40;90.50;;;;;;2097668;28;20385;-91
2021/11/11 03:34:28;;;;;;;15.93;10.38;;;7.40;90.30;;;;;;2098135;28;20016;-91
2021/11/11 03:35:29;;;;;;;15.98;10.70;;;7.40;90.30;;;;;;2098271;28;20098;-90
2021/11/11 03:36:30;;;;;;;18.67;11.50;;;7.40;90.30;;;;;;2106535;28;20520;-91
2021/11/11 03:37:31;;;;;;;20.05;10.75;;;7.40;90.30;;;;;;2106232;28;20394;-91
2021/11/11 03:38:31;;;;;;;18.17;10.82;;;7.50;90.30;;;;;;2105560;28;20040;-90
2021/11/11 03:39:32;;;;;;;17.52;10.50;;;7.40;90.30;;;;;;2113135;28;20035;-91
2021/11/11 03:40:37;;;;;;;16.92;10.75;;;7.50;90.30;;;;;;2112039;28;20050;-90
2021/11/11 03:41:38;;;;;;;15.95;10.70;;;7.40;90.30;;;;;;2106444;28;20024;-90
2021/11/11 03:42:39;;;;;;;16.63;10.35;;;7.40;90.30;;;;;;2106543;28;20062;-90
2021/11/11 03:43:39;;;;;;;16.52;10.50;;;7.50;90.30;;;;;;2105260;28;20023;-90
2021/11/11 03:44:41;;;;;;;16.02;10.30;;;7.40;90.30;;;;;;2089288;28;20032;-90
2021/11/11 03:45:41;;;;;;;18.20;11.15;;;7.40;90.30;;;;;;2097934;28;20033;-91
2021/11/11 03:46:43;;;;;;;18.58;11.10;;;7.40;90.30;;;;;;2106296;28;20024;-90
2021/11/11 03:47:45;;;;;;;17.20;10.70;;;7.50;90.30;;;;;;2089477;28;20118;-90
2021/11/11 03:48:45;;;;;;;14.57;10.75;;;7.50;90.30;;;;;;2098591;28;20462;-89
2021/11/11 03:49:47;;;;;;;18.05;10.88;;;7.50;90.30;;;;;;2112005;28;20061;-91
2021/11/11 03:50:47;;;;;;;16.67;9.95;;;7.50;90.30;;;;;;2105977;28;20024;-89
2021/11/11 03:51:48;;;;;;;17.58;10.60;;;7.50;90.30;;;;;;2105829;28;20027;-89
2021/11/11 03:52:49;;;;;;;17.75;10.75;;;7.50;90.30;;;;;;2097909;28;20489;-91
2021/11/11 03:53:52;;;;;;;19.73;11.02;;;7.50;90.30;;;;;;2097508;28;20119;-90
2021/11/11 03:54:52;;;;;;;17.92;11.02;;;7.50;90.30;;;;;;2098222;28;20029;-90
2021/11/11 03:55:54;;;;;;;17.02;10.00;;;7.50;90.30;;;;;;2106231;28;20052;-90
2021/11/11 03:56:57;;;;;;;18.48;11.30;;;7.50;90.30;;;;;;2098074;28;20028;-90
2021/11/11 03:57:59;;;;;;;19.52;10.77;;;7.50;90.30;;;;;;2090363;28;20498;-91
2021/11/11 03:58:59;;;;;;;18.02;10.63;;;7.50;90.30;;;;;;2097446;28;20072;-90
2021/11/11 04:00:00;;;;;;;16.48;10.48;;;7.50;90.30;;;;;;2102080;28;20028;-90
2021/11/11 04:01:01;;;;;;;17.70;10.85;;;7.50;90.60;;;;;;2107736;28;20110;-90
2021/11/11 04:02:04;;;;;;;18.05;10.55;;;7.50;90.30;;;;;;2106349;28;20032;-90
2021/11/11 04:03:05;;;;;;;18.08;10.55;;;7.50;90.30;;;;;;2089599;28;20021;-91
2021/11/11 04:04:06;;;;;;;16.27;10.45;;;7.50;90.30;;;;;;2097100;28;20421;-90
2021/11/11 04:05:07;;;;;;;18.60;11.25;;;7.50;90.30;;;;;;2097745;28;20028;-89
2021/11/11 04:06:07;;;;;;;16.75;10.25;;;7.50;90.30;;;;;;2103348;28;20126;-90
2021/11/11 04:07:08;;;;;;;15.40;10.23;;;7.50;90.40;;;;;;2114366;28;20074;-90
2021/11/11 04:08:09;;;;;;;15.85;10.13;;;7.50;90.60;;;;;;2106119;28;20481;-89
2021/11/11 04:09:10;;;;;;;16.92;10.93;;;7.50;90.30;;;;;;2097040;28;20028;-89
2021/11/11 04:10:12;;;;;;;17.42;10.63;;;7.50;90.40;;;;;;2088631;28;20021;-90
2021/11/11 04:11:13;;;;;;;17.48;10.52;;;7.50;90.40;;;;;;2089343;28;20025;-89
2021/11/11 04:12:14;;;;;;;17.08;10.30;;;7.50;90.40;;;;;;2089561;28;20049;-90
2021/11/11 04:13:15;;;;;;;17.73;10.48;;;7.50;90.40;;;;;;2082441;28;20600;-90
2021/11/11 04:14:16;;;;;;;16.65;10.40;;;7.50;90.40;;;;;;2088746;28;20018;-90
2021/11/11 04:15:17;;;;;;;17.98;10.38;;;7.50;90.40;;;;;;2089393;28;20025;-90
2021/11/11 04:16:18;;;;;;;18.52;11.25;;;7.50;90.30;;;;;;2097644;28;20125;-89
2021/11/11 04:17:18;;;;;;;19.08;10.93;;;7.50;90.30;;;;;;2091740;28;20021;-90
2021/11/11 04:18:19;;;;;;;17.02;10.85;;;7.60;90.30;;;;;;2094687;28;20436;-90
2021/11/11 04:19:20;;;;;;;16.77;11.20;;;7.50;90.30;;;;;;2103832;28;20604;-90
2021/11/11 04:20:20;;;;;;;17.83;10.98;;;7.60;90.30;;;;;;2095868;28;20036;-90
2021/11/11 04:21:22;;;;;;;20.30;11.18;;;7.50;90.30;;;;;;2091589;28;20021;-90
2021/11/11 04:22:22;;;;;;;16.15;10.77;;;7.60;90.60;;;;;;2106293;28;20028;-91
2021/11/11 04:23:24;;;;;;;18.38;10.55;;;7.50;90.30;;;;;;2096978;28;20037;-90
2021/11/11 04:24:25;;;;;;;18.65;11.82;;;7.60;90.30;;;;;;2105604;28;20056;-90
2021/11/11 04:25:45;;;;;;;16.30;11.40;;;7.50;90.20;;;;;;2114545;28;20028;-91
2021/11/11 04:27:06;;;;;;;;;;;7.50;90.20;;;;;;2119078;28;20205;-90
2021/11/11 04:28:11;;;;;;;16.63;9.75;;;7.50;90.20;;;;;;2122355;28;20018;-90
2021/11/11 04:29:22;;;;;;;16.65;10.80;;;7.50;90.20;;;;;;2116099;28;20032;-90
2021/11/11 04:30:33;;;;;;;15.73;9.90;;;7.50;90.20;;;;;;2113461;28;20028;-91
2021/11/11 04:31:39;;;;;;;15.50;9.73;;;7.50;90.20;;;;;;2115100;28;20008;-85
2021/11/11 04:32:40;;;;;;;15.68;10.25;;;7.50;90.20;;;;;;2107957;28;20032;-89
2021/11/11 04:33:43;;;;;;;17.92;10.50;;;7.50;90.20;;;;;;2111873;28;20032;-90
2021/11/11 04:34:45;;;;;;;16.75;10.55;;;7.50;90.20;;;;;;2116666;28;20012;-85
2021/11/11 04:35:51;;;;;;;16.40;10.45;;;7.50;90.20;;;;;;2116951;28;20023;-88
2021/11/11 04:37:23;;;;;;;17.42;10.48;;;7.50;90.20;;;;;;2099874;28;20013;-84
2021/11/11 04:44:25;;;;;;;17.45;10.35;;;7.50;90.10;;;;;;2098702;28;20059;-90
2021/11/11 04:48:19;;;;;;;15.55;8.73;;;7.50;90.10;;;;;;2116817;28;20043;-90
2021/11/11 05:04:03;;;;;;;18.90;10.13;;;7.50;90.10;;;;;;2109320;28;20021;-90
2021/11/11 05:05:04;;;;;;;17.38;10.13;;;7.50;90.10;;;;;;2115871;28;20486;-90
2021/11/11 05:06:06;;;;;;;17.65;10.45;;;7.60;90.20;;;;;;2101399;28;20087;-90
2021/11/11 05:07:07;;;;;;;16.25;10.35;;;7.60;90.20;;;;;;2107472;28;20020;-90
2021/11/11 05:08:08;;;;;;;18.77;10.68;;;7.60;90.20;;;;;;2107469;28;20458;-91
2021/11/11 05:09:08;;;;;;;16.75;10.52;;;7.60;90.20;;;;;;2090829;28;20025;-90
2021/11/11 05:10:10;;;;;;;17.02;10.85;;;7.60;90.20;;;;;;2090813;28;20392;-90
2021/11/11 05:11:11;;;;;;;17.38;10.43;;;7.60;90.20;;;;;;2093511;28;20021;-90
2021/11/11 05:12:14;;;;;;;17.50;10.60;;;7.60;90.20;;;;;;2088025;28;20049;-90
2021/11/11 05:13:14;;;;;;;19.20;10.70;;;7.60;90.20;;;;;;2090019;28;20029;-90
2021/11/11 05:14:15;;;;;;;18.23;10.48;;;7.60;90.20;;;;;;2099347;28;20040;-90
2021/11/11 05:15:17;;;;;;;16.23;10.07;;;7.60;90.20;;;;;;2106612;28;20030;-90
2021/11/11 05:16:18;;;;;;;18.88;10.73;;;7.60;90.20;;;;;;2099146;28;20426;-90
2021/11/11 05:17:22;;;;;;;18.88;10.98;;;7.60;90.20;;;;;;2099358;28;20032;-90
2021/11/11 05:18:23;;;;;;;15.95;10.30;;;7.60;90.20;;;;;;2099401;28;20087;-90
2021/11/11 05:19:23;;;;;;;16.95;10.50;;;7.60;90.20;;;;;;2099294;28;20033;-90
2021/11/11 05:20:24;;;;;;;18.20;10.95;;;7.60;90.30;;;;;;2105310;28;20034;-89
2021/11/11 05:21:25;;;;;;;17.15;10.48;;;7.60;90.30;;;;;;2092416;28;20044;-90
2021/11/11 05:22:26;;;;;;;19.60;11.18;;;7.60;90.30;;;;;;2090593;28;20125;-89
2021/11/11 05:23:27;;;;;;;19.55;11.43;;;7.60;90.30;;;;;;2104959;28;20538;-90
2021/11/11 05:24:27;;;;;;;17.77;11.00;;;7.60;90.30;;;;;;2107319;28;20113;-90
2021/11/11 05:25:28;;;;;;;15.85;10.77;;;7.60;90.30;;;;;;2098344;28;20025;-90
2021/11/11 05:26:29;;;;;;;17.65;10.65;;;7.70;90.30;;;;;;2098942;28;20046;-89
2021/11/11 05:27:30;;;;;;;19.60;11.45;;;7.60;90.30;;;;;;2111065;28;20030;-88
2021/11/11 05:28:31;;;;;;;16.83;10.73;;;7.70;90.30;;;;;;2107065;28;20035;-89
2021/11/11 05:29:33;;;;;;;15.88;10.30;;;7.60;90.30;;;;;;2107211;28;20544;-90
2021/11/11 05:30:34;;;;;;;18.23;10.48;;;7.60;90.30;;;;;;2099004;28;20536;-89
2021/11/11 05:31:35;;;;;;;17.15;10.88;;;7.60;90.30;;;;;;2099139;28;20024;-89
2021/11/11 05:32:35;;;;;;;17.52;10.88;;;7.70;90.40;;;;;;2110644;28;20021;-89
2021/11/11 05:33:36;;;;;;;16.52;10.55;;;7.60;90.30;;;;;;2097831;28;20025;-89
2021/11/11 05:34:37;;;;;;;18.17;10.32;;;7.70;90.30;;;;;;2090515;28;20027;-89
2021/11/11 05:35:39;;;;;;;17.42;10.50;;;7.70;90.30;;;;;;2082696;28;20048;-90
2021/11/11 05:36:40;;;;;;;16.55;10.00;;;7.60;90.30;;;;;;2099386;28;20115;-89
2021/11/11 05:37:42;;;;;;;16.77;10.75;;;7.60;90.30;;;;;;2090766;28;20029;-89
2021/11/11 05:38:42;;;;;;;16.58;10.13;;;7.70;90.40;;;;;;2091141;28;20511;-89
2021/11/11 05:39:43;;;;;;;16.80;10.60;;;7.60;90.60;;;;;;2100922;28;20119;-89
2021/11/11 05:40:44;;;;;;;17.95;10.57;;;7.60;90.40;;;;;;2089759;28;20035;-89
2021/11/11 05:41:44;;;;;;;16.10;10.48;;;7.60;90.40;;;;;;2089196;28;20083;-89
2021/11/11 05:42:45;;;;;;;16.85;9.85;;;7.60;90.40;;;;;;2087262;28;20067;-90